Time;durP1;ratioP1;P1;durP2;ratioP2;P2;SDS_P1;SDS_P2;PMS_P1;PMS_P2;Temp;Humidity;BMP_temperature;BMP_pressure;BME280_temperature;BME280_humidity;BME280_pressure;Samples;Min_cycle;Max_cycle;Signal;HPM_P1;HPM_P2
2022/04/08 00:01:30;;;;;;;;;1.00;1.00;;;;;;;;5057526;28;46623;-67
2022/04/08 00:03:55;;;;;;;;;0.00;0.00;;;;;;;;5057598;28;45407;-67
2022/04/08 00:06:21;;;;;;;;;0.75;0.00;;;;;;;;5057700;28;45538;-67
2022/04/08 00:08:47;;;;;;;;;1.00;1.00;;;;;;;;5058354;28;45588;-67
2022/04/08 00:11:12;;;;;;;;;1.00;1.00;;;;;;;;5064674;28;45511;-67
2022/04/08 00:13:38;;;;;;;;;2.00;1.00;;;;;;;;5057326;28;45638;-67
2022/04/08 00:16:04;;;;;;;;;4.50;0.50;;;;;;;;5057526;28;45554;-67
2022/04/08 00:18:29;;;;;;;;;0.25;0.25;;;;;;;;5057409;28;45215;-67
2022/04/08 00:20:55;;;;;;;;;1.00;1.00;;;;;;;;5056564;28;45438;-67
2022/04/08 00:23:20;;;;;;;;;1.00;1.00;;;;;;;;5057026;28;45298;-67
2022/04/08 00:25:45;;;;;;;;;4.00;2.00;;;;;;;;5057292;28;45569;-67
2022/04/08 00:28:10;;;;;;;;;1.75;1.00;;;;;;;;5057570;28;45422;-67
2022/04/08 00:30:36;;;;;;;;;1.00;1.00;;;;;;;;5057032;28;45321;-67
2022/04/08 00:33:01;;;;;;;;;1.00;1.00;;;;;;;;5057401;28;45289;-67
2022/04/08 00:35:26;;;;;;;;;0.50;0.50;;;;;;;;5068550;28;45408;-66
2022/04/08 00:37:51;;;;;;;;;1.00;1.00;;;;;;;;5073975;28;45287;-67
2022/04/08 00:40:17;;;;;;;;;3.50;1.00;;;;;;;;5057000;28;45961;-67
2022/04/08 00:42:43;;;;;;;;;1.50;1.50;;;;;;;;5060484;28;45360;-67
2022/04/08 00:45:08;;;;;;;;;0.00;0.00;;;;;;;;5057356;28;45407;-67
2022/04/08 00:47:36;;;;;;;;;4.50;3.00;;;;;;;;5058049;28;45415;-67
2022/04/08 00:50:01;;;;;;;;;5.00;3.33;;;;;;;;5061054;28;47355;-66
2022/04/08 00:52:27;;;;;;;;;4.00;2.00;;;;;;;;5070004;27;45482;-66
2022/04/08 00:54:53;;;;;;;;;2.00;2.00;;;;;;;;5098371;27;45367;-67
2022/04/08 00:57:18;;;;;;;;;2.75;2.00;;;;;;;;5098676;27;45438;-66
2022/04/08 00:59:43;;;;;;;;;2.00;0.50;;;;;;;;5098307;27;46621;-66
2022/04/08 01:02:08;;;;;;;;;2.25;2.00;;;;;;;;5097215;27;45337;-67
2022/04/08 01:04:33;;;;;;;;;3.50;2.75;;;;;;;;5098685;27;45206;-67
2022/04/08 01:06:59;;;;;;;;;3.00;1.00;;;;;;;;5098646;27;45256;-67
2022/04/08 01:09:25;;;;;;;;;3.00;1.00;;;;;;;;5098083;27;46385;-67
2022/04/08 01:11:50;;;;;;;;;5.33;1.00;;;;;;;;5098114;27;45277;-67
2022/04/08 01:14:16;;;;;;;;;1.67;1.33;;;;;;;;5095849;27;45391;-67
2022/04/08 01:16:42;;;;;;;;;7.67;6.00;;;;;;;;5077778;28;46599;-67
2022/04/08 01:19:07;;;;;;;;;3.00;1.75;;;;;;;;5077420;28;45428;-67
2022/04/08 01:21:33;;;;;;;;;1.75;1.00;;;;;;;;5076679;28;45289;-67
2022/04/08 01:23:59;;;;;;;;;0.50;0.00;;;;;;;;5076798;28;45882;-67
2022/04/08 01:26:25;;;;;;;;;0.00;0.00;;;;;;;;5077559;28;45371;-67
2022/04/08 01:28:54;;;;;;;;;4.00;3.00;;;;;;;;5089968;27;45372;-68
2022/04/08 01:31:19;;;;;;;;;1.00;1.00;;;;;;;;5086270;27;45708;-67
2022/04/08 01:33:45;;;;;;;;;1.00;1.00;;;;;;;;5077441;28;45305;-68
2022/04/08 01:36:10;;;;;;;;;1.00;1.00;;;;;;;;5077338;28;45192;-67
2022/04/08 01:38:35;;;;;;;;;2.00;1.00;;;;;;;;5077132;28;46197;-67
2022/04/08 01:41:01;;;;;;;;;2.25;1.00;;;;;;;;5077539;28;45341;-68
2022/04/08 01:43:26;;;;;;;;;1.00;1.00;;;;;;;;5076964;28;45438;-67
2022/04/08 01:45:51;;;;;;;;;2.00;1.00;;;;;;;;5077746;28;45380;-67
2022/04/08 01:48:17;;;;;;;;;0.25;0.25;;;;;;;;5077256;28;45518;-67
2022/04/08 01:50:42;;;;;;;;;2.50;1.00;;;;;;;;5077251;28;45350;-67
2022/04/08 01:53:07;;;;;;;;;0.50;0.50;;;;;;;;5077143;28;45352;-67
2022/04/08 01:55:33;;;;;;;;;2.50;0.25;;;;;;;;5077317;28;45239;-67
2022/04/08 01:57:58;;;;;;;;;1.25;1.00;;;;;;;;5076469;28;46376;-67
2022/04/08 02:00:23;;;;;;;;;2.00;1.00;;;;;;;;5077122;28;45241;-67
2022/04/08 02:02:48;;;;;;;;;1.00;1.00;;;;;;;;5076623;28;45437;-67
2022/04/08 02:05:14;;;;;;;;;1.33;1.00;;;;;;;;5077647;28;45366;-67
2022/04/08 02:07:39;;;;;;;;;2.00;1.50;;;;;;;;5079006;28;46596;-67
2022/04/08 02:10:04;;;;;;;;;0.50;0.25;;;;;;;;5080675;28;45351;-66
2022/04/08 02:12:30;;;;;;;;;2.00;0.75;;;;;;;;5080662;28;45452;-67
2022/04/08 02:14:55;;;;;;;;;1.50;1.50;;;;;;;;5080744;28;45487;-67
2022/04/08 02:17:21;;;;;;;;;3.25;2.00;;;;;;;;5080115;28;46537;-66
2022/04/08 02:19:46;;;;;;;;;3.75;1.00;;;;;;;;5080572;28;45377;-67
2022/04/08 02:22:11;;;;;;;;;4.00;1.00;;;;;;;;5080921;28;45325;-67
2022/04/08 02:24:37;;;;;;;;;1.50;1.50;;;;;;;;5080733;28;45316;-67
2022/04/08 02:27:06;;;;;;;;;1.00;1.00;;;;;;;;5079862;28;46625;-67
2022/04/08 02:29:32;;;;;;;;;0.00;0.00;;;;;;;;5080390;28;45375;-67
2022/04/08 02:31:58;;;;;;;;;0.50;0.50;;;;;;;;5080430;28;45304;-68
2022/04/08 02:34:24;;;;;;;;;0.25;0.25;;;;;;;;5080178;28;45604;-68
2022/04/08 02:36:50;;;;;;;;;1.00;1.00;;;;;;;;5080051;28;46214;-68
2022/04/08 02:39:15;;;;;;;;;1.00;1.00;;;;;;;;5079557;28;45315;-68
2022/04/08 02:41:41;;;;;;;;;0.00;0.00;;;;;;;;5079971;28;45638;-68
2022/04/08 02:44:06;;;;;;;;;3.00;0.25;;;;;;;;5080717;28;45308;-68
2022/04/08 02:46:31;;;;;;;;;0.25;0.25;;;;;;;;5080243;28;46325;-68
2022/04/08 02:48:57;;;;;;;;;4.00;2.00;;;;;;;;5080264;28;45316;-68
2022/04/08 02:51:22;;;;;;;;;5.00;1.33;;;;;;;;5080052;28;45304;-68
2022/04/08 02:53:47;;;;;;;;;2.00;0.00;;;;;;;;5080178;28;45424;-68
2022/04/08 02:56:12;;;;;;;;;2.75;1.25;;;;;;;;5079326;28;47418;-68
2022/04/08 02:58:38;;;;;;;;;2.00;0.00;;;;;;;;5061310;28;45424;-68
2022/04/08 03:01:03;;;;;;;;;2.00;0.25;;;;;;;;5080142;28;45292;-68
2022/04/08 03:03:28;;;;;;;;;1.00;1.00;;;;;;;;5080163;28;45499;-69
2022/04/08 03:05:54;;;;;;;;;0.00;0.00;;;;;;;;5079813;28;45401;-68
2022/04/08 03:08:19;;;;;;;;;3.00;2.00;;;;;;;;5079865;28;45316;-68
2022/04/08 03:10:44;;;;;;;;;3.00;0.25;;;;;;;;5080033;28;45418;-68
2022/04/08 03:13:11;;;;;;;;;3.50;0.75;;;;;;;;5079268;28;45321;-68
2022/04/08 03:15:36;;;;;;;;;0.50;0.00;;;;;;;;5079642;28;46506;-68
2022/04/08 03:18:01;;;;;;;;;1.00;1.00;;;;;;;;5077993;28;45819;-68
2022/04/08 03:20:26;;;;;;;;;2.75;0.00;;;;;;;;5079579;28;45223;-68
2022/04/08 03:22:52;;;;;;;;;0.25;0.25;;;;;;;;5079612;28;45285;-68
2022/04/08 03:25:17;;;;;;;;;4.33;3.00;;;;;;;;5079354;28;46296;-69
2022/04/08 03:27:42;;;;;;;;;0.75;0.75;;;;;;;;5079421;28;45406;-69
2022/04/08 03:30:08;;;;;;;;;5.75;2.00;;;;;;;;5079713;28;45304;-68
2022/04/08 03:32:33;;;;;;;;;2.00;2.00;;;;;;;;5079484;28;45574;-68
2022/04/08 03:34:58;;;;;;;;;2.25;2.00;;;;;;;;5044125;28;46468;-68
2022/04/08 03:37:24;;;;;;;;;1.50;1.00;;;;;;;;5078619;28;45440;-68
2022/04/08 03:39:49;;;;;;;;;4.67;3.67;;;;;;;;5079462;28;45390;-68
2022/04/08 03:42:14;;;;;;;;;1.00;1.00;;;;;;;;5079435;28;45305;-68
2022/04/08 03:44:40;;;;;;;;;3.00;3.00;;;;;;;;5079052;28;45553;-68
2022/04/08 03:47:05;;;;;;;;;1.25;1.25;;;;;;;;5079401;28;45340;-68
2022/04/08 03:49:33;;;;;;;;;2.25;2.00;;;;;;;;5079167;28;45352;-68
2022/04/08 03:51:58;;;;;;;;;1.00;1.00;;;;;;;;5078691;28;45284;-68
2022/04/08 03:54:23;;;;;;;;;1.00;1.00;;;;;;;;5078656;28;45959;-68
2022/04/08 03:56:49;;;;;;;;;0.50;0.00;;;;;;;;5078603;28;45486;-68
2022/04/08 03:59:14;;;;;;;;;1.75;1.75;;;;;;;;5079405;28;45822;-68
2022/04/08 04:01:39;;;;;;;;;3.00;1.00;;;;;;;;5090508;27;45301;-68
2022/04/08 04:04:05;;;;;;;;;0.00;0.00;;;;;;;;5099346;27;45590;-68
2022/04/08 04:06:30;;;;;;;;;3.00;1.00;;;;;;;;5099409;27;45204;-68
2022/04/08 04:08:55;;;;;;;;;3.00;1.00;;;;;;;;5099512;27;45261;-68
2022/04/08 04:11:21;;;;;;;;;3.00;1.00;;;;;;;;5097256;27;45403;-68
2022/04/08 04:13:46;;;;;;;;;0.50;0.50;;;;;;;;5078573;28;45839;-68
2022/04/08 04:16:11;;;;;;;;;2.75;0.75;;;;;;;;5078643;28;45270;-68
2022/04/08 04:18:37;;;;;;;;;5.25;1.00;;;;;;;;5078833;28;45336;-68
2022/04/08 04:21:02;;;;;;;;;4.00;4.00;;;;;;;;5078906;28;45593;-69
2022/04/08 04:23:28;;;;;;;;;1.67;1.67;;;;;;;;5078650;28;46485;-68
2022/04/08 04:25:53;;;;;;;;;0.50;0.50;;;;;;;;5077769;28;45209;-68
2022/04/08 04:28:18;;;;;;;;;3.00;3.00;;;;;;;;5078100;28;45219;-68
2022/04/08 04:30:44;;;;;;;;;3.33;2.67;;;;;;;;5078160;28;45404;-68
2022/04/08 04:33:09;;;;;;;;;2.00;1.00;;;;;;;;5078433;28;46611;-69
2022/04/08 04:35:35;;;;;;;;;1.50;1.50;;;;;;;;5078330;28;45853;-68
2022/04/08 04:38:00;;;;;;;;;4.50;1.00;;;;;;;;5078388;28;45334;-68
2022/04/08 04:40:26;;;;;;;;;1.25;1.25;;;;;;;;5078221;28;45511;-68
2022/04/08 04:42:51;;;;;;;;;3.00;2.75;;;;;;;;5078322;28;46666;-68
2022/04/08 04:45:17;;;;;;;;;2.50;1.25;;;;;;;;5078154;28;45435;-68
2022/04/08 04:47:42;;;;;;;;;10.33;5.67;;;;;;;;5078374;28;45336;-68
2022/04/08 04:50:08;;;;;;;;;5.75;2.50;;;;;;;;5078264;28;45470;-68
2022/04/08 04:52:33;;;;;;;;;2.50;2.25;;;;;;;;5078118;28;46017;-68
2022/04/08 04:54:58;;;;;;;;;11.33;5.00;;;;;;;;5077494;28;45282;-68
2022/04/08 04:57:23;;;;;;;;;8.33;5.33;;;;;;;;5078332;28;45645;-68
2022/04/08 04:59:48;;;;;;;;;6.00;5.00;;;;;;;;5093713;27;45602;-68
2022/04/08 05:02:14;;;;;;;;;10.67;8.00;;;;;;;;5077213;28;45682;-68
2022/04/08 05:04:39;;;;;;;;;6.33;3.33;;;;;;;;5078011;28;45223;-68
2022/04/08 05:07:04;;;;;;;;;4.00;2.00;;;;;;;;5077479;28;45470;-68
2022/04/08 05:09:29;;;;;;;;;9.00;4.00;;;;;;;;5078183;28;45316;-68
2022/04/08 05:11:55;;;;;;;;;4.00;3.00;;;;;;;;5077828;28;45404;-68
2022/04/08 05:14:22;;;;;;;;;3.25;2.75;;;;;;;;5077793;28;45233;-68
2022/04/08 05:16:48;;;;;;;;;2.00;2.00;;;;;;;;5077842;28;45288;-68
2022/04/08 05:19:13;;;;;;;;;3.67;2.00;;;;;;;;5077601;28;45367;-68
2022/04/08 05:21:38;;;;;;;;;5.33;4.00;;;;;;;;5077155;28;46392;-68
2022/04/08 05:24:03;;;;;;;;;9.67;6.00;;;;;;;;5077548;28;45383;-68
2022/04/08 05:26:28;;;;;;;;;4.67;3.00;;;;;;;;5076902;28;45678;-68
2022/04/08 05:28:54;;;;;;;;;9.00;3.00;;;;;;;;5077357;28;45499;-68
2022/04/08 05:31:19;;;;;;;;;4.33;4.33;;;;;;;;5078144;27;46497;-68
2022/04/08 05:33:44;;;;;;;;;6.67;4.00;;;;;;;;5077674;28;45388;-68
2022/04/08 05:36:09;;;;;;;;;7.33;5.00;;;;;;;;5059289;28;45428;-68
2022/04/08 05:38:35;;;;;;;;;87.75;77.00;;;;;;;;5077407;28;45506;-68
2022/04/08 05:41:00;;;;;;;;;9.67;6.67;;;;;;;;5077530;28;46487;-68
2022/04/08 05:43:25;;;;;;;;;4.33;4.33;;;;;;;;5080826;28;45268;-68
2022/04/08 05:45:52;;;;;;;;;5.33;4.00;;;;;;;;5080762;28;45476;-68
2022/04/08 05:48:17;;;;;;;;;6.00;3.00;;;;;;;;5081311;28;45484;-68
2022/04/08 05:50:42;;;;;;;;;4.33;3.00;;;;;;;;5080818;28;46198;-68
2022/04/08 05:53:08;;;;;;;;;3.00;3.00;;;;;;;;5075153;28;45462;-68
2022/04/08 05:55:33;;;;;;;;;3.50;2.00;;;;;;;;5068041;28;45400;-68
2022/04/08 05:57:58;;;;;;;;;5.00;5.00;;;;;;;;5064550;28;45334;-68
2022/04/08 06:00:23;;;;;;;;;7.00;4.00;;;;;;;;5075739;28;45435;-68
2022/04/08 06:02:49;;;;;;;;;6.33;3.00;;;;;;;;5080806;28;45290;-68
2022/04/08 06:05:21;;;;;;;;;5.00;5.00;;;;;;;;5080882;28;45592;-68
2022/04/08 06:07:50;;;;;;;;;9.00;3.50;;;;;;;;5080916;28;45404;-69
2022/04/08 06:10:19;;;;;;;;;10.00;9.00;;;;;;;;5080383;28;45905;-68
2022/04/08 06:12:47;;;;;;;;;6.67;6.67;;;;;;;;5080173;28;45340;-68
2022/04/08 06:15:12;;;;;;;;;5.00;4.33;;;;;;;;5080601;28;45389;-68
2022/04/08 06:17:38;;;;;;;;;10.67;10.00;;;;;;;;5080348;28;45349;-68
2022/04/08 06:20:04;;;;;;;;;12.00;11.33;;;;;;;;5079596;28;45364;-68
2022/04/08 06:22:30;;;;;;;;;8.33;8.33;;;;;;;;5093607;27;45249;-69
2022/04/08 06:24:55;;;;;;;;;10.67;9.00;;;;;;;;5101306;27;45240;-68
2022/04/08 06:27:20;;;;;;;;;3.00;1.67;;;;;;;;5100908;27;45470;-68
2022/04/08 06:29:45;;;;;;;;;11.00;9.33;;;;;;;;5088364;27;46470;-68
2022/04/08 06:32:10;;;;;;;;;13.33;7.00;;;;;;;;5080246;28;45196;-68
2022/04/08 06:34:36;;;;;;;;;11.33;7.00;;;;;;;;5080341;28;45271;-68
2022/04/08 06:37:01;;;;;;;;;4.67;4.00;;;;;;;;5080691;28;45318;-68
2022/04/08 06:39:26;;;;;;;;;13.33;8.00;;;;;;;;5079997;28;46617;-68
2022/04/08 06:41:51;;;;;;;;;10.33;6.00;;;;;;;;5079682;28;45255;-68
2022/04/08 06:44:17;;;;;;;;;12.33;6.00;;;;;;;;5080153;28;45373;-68
2022/04/08 06:46:42;;;;;;;;;5.00;5.00;;;;;;;;5079693;28;45425;-68
2022/04/08 06:49:07;;;;;;;;;12.00;9.00;;;;;;;;5080132;28;46134;-68
2022/04/08 06:51:32;;;;;;;;;10.67;7.33;;;;;;;;5061086;28;45335;-68
2022/04/08 06:53:58;;;;;;;;;8.33;5.67;;;;;;;;5079726;28;45383;-68
2022/04/08 06:56:23;;;;;;;;;6.33;5.00;;;;;;;;5079841;28;45459;-68
2022/04/08 06:58:50;;;;;;;;;17.67;14.00;;;;;;;;5079442;28;46352;-68
2022/04/08 07:01:15;;;;;;;;;16.00;12.33;;;;;;;;5079688;27;45521;-68
2022/04/08 07:03:40;;;;;;;;;7.00;5.00;;;;;;;;5079260;28;45667;-68
2022/04/08 07:06:05;;;;;;;;;7.67;6.00;;;;;;;;5080396;28;45406;-68
2022/04/08 07:08:31;;;;;;;;;8.33;5.00;;;;;;;;5079753;28;46307;-69
2022/04/08 07:10:57;;;;;;;;;6.33;5.00;;;;;;;;5079740;28;45434;-68
2022/04/08 07:13:22;;;;;;;;;10.67;7.00;;;;;;;;5079788;28;45365;-68
2022/04/08 07:15:47;;;;;;;;;5.00;4.00;;;;;;;;5079504;28;45759;-68
2022/04/08 07:18:12;;;;;;;;;12.00;10.00;;;;;;;;5079197;28;45554;-68
2022/04/08 07:20:38;;;;;;;;;2.50;2.50;;;;;;;;5078838;28;45341;-68
2022/04/08 07:23:05;;;;;;;;;5.00;4.00;;;;;;;;5095697;27;45422;-68
2022/04/08 07:25:30;;;;;;;;;5.00;4.00;;;;;;;;5100380;27;45235;-69
2022/04/08 07:28:01;;;;;;;;;5.00;5.00;;;;;;;;5095420;27;46940;-68
2022/04/08 07:30:28;;;;;;;;;9.00;7.00;;;;;;;;5080276;27;45320;-70
2022/04/08 07:32:54;;;;;;;;;5.00;5.00;;;;;;;;5088168;27;45491;-69
2022/04/08 07:35:21;;;;;;;;;7.25;4.00;;;;;;;;5079232;28;45372;-68
2022/04/08 07:37:46;;;;;;;;;5.67;5.00;;;;;;;;5078616;28;45665;-68
2022/04/08 07:40:12;;;;;;;;;4.00;3.00;;;;;;;;5078570;28;45469;-68
2022/04/08 07:42:39;;;;;;;;;11.00;6.00;;;;;;;;5079076;28;45256;-66
2022/04/08 07:45:04;;;;;;;;;4.50;4.00;;;;;;;;5078301;27;45638;-66
2022/04/08 07:47:30;;;;;;;;;6.25;3.25;;;;;;;;5078933;28;45514;-67
2022/04/08 07:49:56;;;;;;;;;7.00;3.67;;;;;;;;5078809;28;45456;-66
2022/04/08 07:52:21;;;;;;;;;3.00;3.00;;;;;;;;5078862;28;45788;-68
2022/04/08 07:54:46;;;;;;;;;6.00;3.00;;;;;;;;5079013;28;45233;-68
2022/04/08 07:57:14;;;;;;;;;3.00;2.67;;;;;;;;5078815;28;45482;-68
2022/04/08 07:59:40;;;;;;;;;3.00;3.00;;;;;;;;5078254;28;45592;-68
2022/04/08 08:02:05;;;;;;;;;3.50;2.75;;;;;;;;5078777;28;45644;-68
2022/04/08 08:04:31;;;;;;;;;7.33;4.00;;;;;;;;5077666;28;45387;-68
2022/04/08 08:06:56;;;;;;;;;5.00;5.00;;;;;;;;5078598;28;46649;-68
2022/04/08 08:09:21;;;;;;;;;10.00;7.67;;;;;;;;5078067;28;45330;-68
2022/04/08 08:11:47;;;;;;;;;12.00;10.33;;;;;;;;5077458;27;45411;-68
2022/04/08 08:14:12;;;;;;;;;6.00;6.00;;;;;;;;5077561;28;45548;-68
2022/04/08 08:16:38;;;;;;;;;27.67;22.67;;;;;;;;5076273;28;45587;-68
2022/04/08 08:19:03;;;;;;;;;7.00;5.33;;;;;;;;5077680;28;45395;-68
2022/04/08 08:21:28;;;;;;;;;12.00;7.33;;;;;;;;5076988;28;45371;-68
2022/04/08 08:23:53;;;;;;;;;15.00;12.33;;;;;;;;5077746;28;45370;-68
2022/04/08 08:26:18;;;;;;;;;13.33;12.00;;;;;;;;5077668;28;45307;-68
2022/04/08 08:28:44;;;;;;;;;12.33;12.00;;;;;;;;5077725;28;45409;-68
2022/04/08 08:31:09;;;;;;;;;16.33;13.67;;;;;;;;5078186;28;45364;-68
2022/04/08 08:33:34;;;;;;;;;19.33;15.00;;;;;;;;5078124;28;45293;-67
2022/04/08 08:35:59;;;;;;;;;22.67;17.33;;;;;;;;5077691;28;46496;-67
2022/04/08 08:38:25;;;;;;;;;29.67;21.67;;;;;;;;5077965;28;45430;-68
2022/04/08 08:40:50;;;;;;;;;27.00;25.67;;;;;;;;5077149;27;45418;-68
2022/04/08 08:43:17;;;;;;;;;42.67;38.67;;;;;;;;5079320;27;45562;-67
2022/04/08 08:45:43;;;;;;;;;52.67;42.67;;;;;;;;5076057;28;47076;-67
2022/04/08 08:48:08;;;;;;;;;22.00;13.67;;;;;;;;5076207;28;45572;-67
2022/04/08 08:50:37;;;;;;;;;30.00;25.00;;;;;;;;5077733;28;45395;-67
2022/04/08 08:53:02;;;;;;;;;27.67;23.67;;;;;;;;5077598;28;45294;-67
2022/04/08 08:55:27;;;;;;;;;26.33;22.33;;;;;;;;5074775;28;45380;-68
2022/04/08 08:57:53;;;;;;;;;30.67;21.67;;;;;;;;5077139;28;45306;-67
2022/04/08 09:00:20;;;;;;;;;31.00;25.33;;;;;;;;5077206;28;45289;-73
2022/04/08 09:02:48;;;;;;;;;25.33;19.67;;;;;;;;5077033;28;45568;-70
2022/04/08 09:05:16;;;;;;;;;25.33;15.67;;;;;;;;5083925;27;45360;-67
2022/04/08 09:07:41;;;;;;;;;21.00;20.00;;;;;;;;5095802;27;45375;-67
2022/04/08 09:10:07;;;;;;;;;15.00;14.00;;;;;;;;5097645;27;45311;-67
2022/04/08 09:12:32;;;;;;;;;19.33;14.33;;;;;;;;5097653;27;45707;-68
2022/04/08 09:14:59;;;;;;;;;14.00;11.00;;;;;;;;5097663;27;46306;-68
2022/04/08 09:17:25;;;;;;;;;15.00;13.00;;;;;;;;5097272;27;45366;-68
2022/04/08 09:19:52;;;;;;;;;18.67;14.67;;;;;;;;5097594;27;45441;-68
2022/04/08 09:22:18;;;;;;;;;21.67;15.00;;;;;;;;5095231;27;45355;-67
2022/04/08 09:24:43;;;;;;;;;10.67;8.33;;;;;;;;5076734;27;45407;-68
2022/04/08 09:27:10;;;;;;;;;13.67;11.00;;;;;;;;5077061;28;45367;-67
2022/04/08 09:29:35;;;;;;;;;15.00;13.33;;;;;;;;5076919;27;45309;-67
2022/04/08 09:32:07;;;;;;;;;19.00;15.00;;;;;;;;5077040;27;45409;-68
2022/04/08 09:34:32;;;;;;;;;10.67;8.33;;;;;;;;5078698;27;46396;-68
2022/04/08 09:36:58;;;;;;;;;7.33;6.00;;;;;;;;5093749;27;45379;-67
2022/04/08 09:39:23;;;;;;;;;10.67;9.00;;;;;;;;5093529;27;45614;-68
2022/04/08 09:41:50;;;;;;;;;13.33;11.00;;;;;;;;5097406;27;45441;-68
2022/04/08 09:44:22;;;;;;;;;12.33;11.33;;;;;;;;5095131;27;46568;-68
2022/04/08 09:46:47;;;;;;;;;8.50;7.50;;;;;;;;5097208;27;45447;-68
2022/04/08 09:49:13;;;;;;;;;11.00;11.00;;;;;;;;5097413;27;45479;-68
2022/04/08 09:51:39;;;;;;;;;11.67;10.00;;;;;;;;5090712;27;45430;-68
2022/04/08 09:54:06;;;;;;;;;18.67;13.00;;;;;;;;5091231;27;47091;-68
2022/04/08 09:56:33;;;;;;;;;12.00;9.00;;;;;;;;5097062;27;45241;-68
2022/04/08 09:59:01;;;;;;;;;11.67;10.00;;;;;;;;5096712;27;45478;-68
2022/04/08 10:01:26;;;;;;;;;6.33;5.00;;;;;;;;5094366;27;45343;-68
2022/04/08 10:03:52;;;;;;;;;12.33;7.00;;;;;;;;5068108;27;48300;-68
2022/04/08 10:06:17;;;;;;;;;3.50;3.50;;;;;;;;5094048;27;45417;-68
2022/04/08 10:08:43;;;;;;;;;2.00;1.00;;;;;;;;5077094;27;45499;-67
2022/04/08 10:11:12;;;;;;;;;25.00;21.33;;;;;;;;5076841;28;45400;-68
2022/04/08 10:13:59;;;;;;;;;4.50;2.00;;;;;;;;5076400;28;45388;-68
2022/04/08 10:16:25;;;;;;;;;5.00;3.75;;;;;;;;5076545;28;45887;-68
2022/04/08 10:18:52;;;;;;;;;3.00;1.00;;;;;;;;5076624;27;45486;-68
2022/04/08 10:21:17;;;;;;;;;4.50;2.75;;;;;;;;5076693;28;45253;-68
2022/04/08 10:23:47;;;;;;;;;1.50;1.25;;;;;;;;5080400;27;45469;-68
2022/04/08 10:26:20;;;;;;;;;2.50;2.00;;;;;;;;5079105;27;45507;-68
2022/04/08 10:28:45;;;;;;;;;4.00;2.00;;;;;;;;5084783;27;45329;-68
2022/04/08 10:31:17;;;;;;;;;1.75;1.00;;;;;;;;5090089;27;45374;-68
2022/04/08 10:34:01;;;;;;;;;3.00;1.00;;;;;;;;5079218;28;46198;-67
2022/04/08 10:36:45;;;;;;;;;1.00;1.00;;;;;;;;5098357;27;45300;-68
2022/04/08 10:39:12;;;;;;;;;0.00;0.00;;;;;;;;5101061;27;45466;-68
2022/04/08 10:41:54;;;;;;;;;0.50;0.50;;;;;;;;5093554;27;45374;-67
2022/04/08 10:44:34;;;;;;;;;1.00;0.00;;;;;;;;5080023;28;46174;-68
2022/04/08 10:47:01;;;;;;;;;0.75;0.00;;;;;;;;5079948;28;45368;-68
2022/04/08 10:49:27;;;;;;;;;0.00;0.00;;;;;;;;5079941;28;45340;-68
2022/04/08 10:51:52;;;;;;;;;0.00;0.00;;;;;;;;5080427;28;45212;-68
2022/04/08 10:54:18;;;;;;;;;1.00;0.00;;;;;;;;5079836;28;45477;-68
2022/04/08 10:56:43;;;;;;;;;0.50;0.00;;;;;;;;5079781;28;45300;-68
2022/04/08 10:59:09;;;;;;;;;1.25;0.00;;;;;;;;5079969;28;45294;-68
2022/04/08 11:01:44;;;;;;;;;0.00;0.00;;;;;;;;5080266;28;45423;-68
2022/04/08 11:04:09;;;;;;;;;0.00;0.00;;;;;;;;5079993;28;46292;-68
2022/04/08 11:06:36;;;;;;;;;0.00;0.00;;;;;;;;5079928;28;45248;-68
2022/04/08 11:09:05;;;;;;;;;1.00;1.00;;;;;;;;5079594;28;45368;-68
2022/04/08 11:11:31;;;;;;;;;1.00;0.00;;;;;;;;5079708;28;45387;-68
2022/04/08 11:14:00;;;;;;;;;1.00;0.00;;;;;;;;5079586;28;45534;-68
2022/04/08 11:16:30;;;;;;;;;0.00;0.00;;;;;;;;5079272;28;45422;-68
2022/04/08 11:18:56;;;;;;;;;0.00;0.00;;;;;;;;5090143;27;45442;-68
2022/04/08 11:21:21;;;;;;;;;2.00;0.00;;;;;;;;5082406;27;45690;-68
2022/04/08 11:23:57;;;;;;;;;0.00;0.00;;;;;;;;5079645;28;45391;-68
2022/04/08 11:26:22;;;;;;;;;0.00;0.00;;;;;;;;5079245;28;45284;-67
2022/04/08 11:28:47;;;;;;;;;0.75;0.00;;;;;;;;5082676;27;45492;-68
2022/04/08 11:31:16;;;;;;;;;0.00;0.00;;;;;;;;5078821;28;45330;-67
2022/04/08 11:33:41;;;;;;;;;2.00;0.00;;;;;;;;5082912;27;45502;-67
2022/04/08 11:36:06;;;;;;;;;0.00;0.00;;;;;;;;5078423;28;45442;-67
2022/04/08 11:38:33;;;;;;;;;0.00;0.00;;;;;;;;5078237;28;45359;-67
2022/04/08 11:40:58;;;;;;;;;1.00;1.00;;;;;;;;5087005;27;45826;-67
2022/04/08 11:43:24;;;;;;;;;0.00;0.00;;;;;;;;5099054;27;46276;-67
2022/04/08 11:45:50;;;;;;;;;0.00;0.00;;;;;;;;5092991;27;45348;-66
2022/04/08 11:48:16;;;;;;;;;0.00;0.00;;;;;;;;5099366;27;45375;-67
2022/04/08 11:50:43;;;;;;;;;0.00;0.00;;;;;;;;5093186;27;45431;-67
2022/04/08 11:53:15;;;;;;;;;2.00;0.00;;;;;;;;5078515;27;46157;-67
2022/04/08 11:55:50;;;;;;;;;0.00;0.00;;;;;;;;5078170;28;45439;-67
2022/04/08 11:58:18;;;;;;;;;0.50;0.50;;;;;;;;5079916;27;45445;-67
2022/04/08 12:00:43;;;;;;;;;0.50;0.00;;;;;;;;5078793;28;45296;-67
2022/04/08 12:03:08;;;;;;;;;0.00;0.00;;;;;;;;5098410;27;45377;-67
2022/04/08 12:05:43;;;;;;;;;0.00;0.00;;;;;;;;5098755;27;45367;-67
2022/04/08 12:08:10;;;;;;;;;1.75;1.00;;;;;;;;5098887;27;45374;-67
2022/04/08 12:10:36;;;;;;;;;1.00;1.00;;;;;;;;5099251;27;45457;-67
2022/04/08 12:13:11;;;;;;;;;0.00;0.00;;;;;;;;5090688;27;46114;-67
2022/04/08 12:15:41;;;;;;;;;0.00;0.00;;;;;;;;5098347;27;45472;-67
2022/04/08 12:18:06;;;;;;;;;0.00;0.00;;;;;;;;5098979;27;45310;-67
2022/04/08 12:20:32;;;;;;;;;0.50;0.50;;;;;;;;5088729;27;45328;-67
2022/04/08 12:22:57;;;;;;;;;1.00;1.00;;;;;;;;5077923;28;45983;-67
2022/04/08 12:25:22;;;;;;;;;1.00;0.00;;;;;;;;5078182;27;45403;-67
2022/04/08 12:27:52;;;;;;;;;0.00;0.00;;;;;;;;5094160;27;45459;-67
2022/04/08 12:30:17;;;;;;;;;0.00;0.00;;;;;;;;5096502;27;45326;-67
2022/04/08 12:32:43;;;;;;;;;2.00;0.00;;;;;;;;5095942;27;46920;-67
2022/04/08 12:35:10;;;;;;;;;1.00;0.00;;;;;;;;5088507;27;45483;-67
2022/04/08 12:37:36;;;;;;;;;0.00;0.00;;;;;;;;5089775;27;45426;-67
2022/04/08 12:40:02;;;;;;;;;0.75;0.75;;;;;;;;5083805;27;45364;-67
2022/04/08 12:42:27;;;;;;;;;0.75;0.00;;;;;;;;5078809;27;45484;-67
2022/04/08 12:44:52;;;;;;;;;0.75;0.75;;;;;;;;5077684;27;45407;-67
2022/04/08 12:47:17;;;;;;;;;0.00;0.00;;;;;;;;5077927;28;45428;-67
2022/04/08 12:49:42;;;;;;;;;1.50;0.00;;;;;;;;5077642;27;45438;-67
2022/04/08 12:52:08;;;;;;;;;0.50;0.50;;;;;;;;5080802;27;45637;-67
2022/04/08 12:54:33;;;;;;;;;1.00;1.00;;;;;;;;5077758;28;45157;-67
2022/04/08 12:56:58;;;;;;;;;0.00;0.00;;;;;;;;5077731;28;45283;-67
2022/04/08 12:59:23;;;;;;;;;0.25;0.25;;;;;;;;5078524;27;45554;-67
2022/04/08 13:01:49;;;;;;;;;0.00;0.00;;;;;;;;5077638;28;46369;-67
2022/04/08 13:04:14;;;;;;;;;0.00;0.00;;;;;;;;5077282;27;45229;-67
2022/04/08 13:06:39;;;;;;;;;0.00;0.00;;;;;;;;5077745;27;45421;-67
2022/04/08 13:09:04;;;;;;;;;2.25;1.00;;;;;;;;5077688;28;45297;-67
2022/04/08 13:11:30;;;;;;;;;1.50;1.00;;;;;;;;5077137;28;46653;-67
2022/04/08 13:13:56;;;;;;;;;1.00;1.00;;;;;;;;5076102;27;45490;-67
2022/04/08 13:16:21;;;;;;;;;1.00;1.00;;;;;;;;5097655;27;45514;-67
2022/04/08 13:18:46;;;;;;;;;2.25;0.00;;;;;;;;5085135;27;45468;-67
2022/04/08 13:21:11;;;;;;;;;3.75;3.75;;;;;;;;5094313;27;45572;-67
2022/04/08 13:23:37;;;;;;;;;9.33;7.00;;;;;;;;5097537;27;45388;-67
2022/04/08 13:26:02;;;;;;;;;2.25;1.00;;;;;;;;5097925;27;45425;-67
2022/04/08 13:28:27;;;;;;;;;3.00;0.00;;;;;;;;5097730;27;45284;-67
2022/04/08 13:30:53;;;;;;;;;1.00;1.00;;;;;;;;5097475;27;45459;-67
2022/04/08 13:33:18;;;;;;;;;4.25;1.75;;;;;;;;5082936;27;45506;-67
2022/04/08 13:35:43;;;;;;;;;2.50;0.00;;;;;;;;5095723;27;45488;-67
2022/04/08 13:38:08;;;;;;;;;1.00;1.00;;;;;;;;5097952;27;45719;-67
2022/04/08 13:40:34;;;;;;;;;3.00;1.00;;;;;;;;5097203;27;46258;-67
2022/04/08 13:43:02;;;;;;;;;0.25;0.25;;;;;;;;5095431;27;45424;-67
2022/04/08 13:45:27;;;;;;;;;2.75;2.75;;;;;;;;5086533;27;45337;-68
2022/04/08 13:47:52;;;;;;;;;3.75;3.00;;;;;;;;5089632;27;45499;-67
2022/04/08 13:50:18;;;;;;;;;3.50;1.00;;;;;;;;5097375;27;47166;-67
2022/04/08 13:52:43;;;;;;;;;3.25;1.75;;;;;;;;5097056;27;45376;-67
2022/04/08 13:55:08;;;;;;;;;20.00;18.67;;;;;;;;5097460;27;45356;-67
2022/04/08 13:57:34;;;;;;;;;3.00;3.00;;;;;;;;5096746;27;45434;-67
2022/04/08 13:59:59;;;;;;;;;5.00;4.00;;;;;;;;5096932;27;47302;-67
2022/04/08 14:02:25;;;;;;;;;2.00;2.00;;;;;;;;5085170;27;45356;-67
2022/04/08 14:04:50;;;;;;;;;4.00;2.00;;;;;;;;5080446;28;45356;-67
2022/04/08 14:07:15;;;;;;;;;1.50;1.50;;;;;;;;5081516;27;45400;-68
2022/04/08 14:09:41;;;;;;;;;2.00;2.00;;;;;;;;5095057;27;46217;-68
2022/04/08 14:12:06;;;;;;;;;2.00;1.00;;;;;;;;5096745;27;45521;-67
2022/04/08 14:14:32;;;;;;;;;3.00;1.50;;;;;;;;5079833;27;45423;-67
2022/04/08 14:16:57;;;;;;;;;1.00;1.00;;;;;;;;5080354;28;45435;-67
2022/04/08 14:19:22;;;;;;;;;5.67;4.67;;;;;;;;5079362;27;45841;-66
2022/04/08 14:21:48;;;;;;;;;16.33;15.00;;;;;;;;5079609;28;45410;-66
2022/04/08 14:24:13;;;;;;;;;2.00;2.00;;;;;;;;5079854;28;45326;-66
2022/04/08 14:26:40;;;;;;;;;3.00;3.00;;;;;;;;5079960;28;45567;-66
2022/04/08 14:29:06;;;;;;;;;2.00;2.00;;;;;;;;5079705;27;47390;-66
2022/04/08 14:31:31;;;;;;;;;2.75;2.50;;;;;;;;5079059;28;45383;-66